createdAt,value
2019-01-18T00:01:15.502Z,2.77
2019-01-18T00:03:43.144Z,4.23
2019-01-18T00:06:10.812Z,3.13
2019-01-18T00:08:38.490Z,2.23
2019-01-18T00:11:06.117Z,3.13
2019-01-18T00:13:33.808Z,5.33
2019-01-18T00:16:01.446Z,2.30
2019-01-18T00:18:29.239Z,2.03
2019-01-18T00:20:56.860Z,4.00
2019-01-18T00:23:24.502Z,3.45
2019-01-18T00:25:52.226Z,4.33
2019-01-18T00:28:19.908Z,4.57
2019-01-18T00:30:47.598Z,2.97
2019-01-18T00:33:15.227Z,2.50
2019-01-18T00:35:42.992Z,1.70
2019-01-18T00:38:10.691Z,3.73
2019-01-18T00:40:38.290Z,3.43
2019-01-18T00:43:05.994Z,2.08
2019-01-18T00:45:33.675Z,2.90
2019-01-18T00:48:01.345Z,2.12
2019-01-18T00:50:28.960Z,3.20
2019-01-18T00:52:56.655Z,2.43
2019-01-18T00:55:24.295Z,2.53
2019-01-18T00:57:51.996Z,3.30
2019-01-18T01:00:22.247Z,1.92
2019-01-18T01:02:49.941Z,3.15
2019-01-18T01:05:18.031Z,3.22
2019-01-18T01:07:45.795Z,4.92
2019-01-18T01:10:13.558Z,5.75
2019-01-18T01:12:41.306Z,2.55
2019-01-18T01:15:12.289Z,3.62
2019-01-18T01:17:40.249Z,1.52
2019-01-18T01:20:09.032Z,1.90
2019-01-18T01:22:36.649Z,3.45
2019-01-18T01:25:04.745Z,2.37
2019-01-18T01:27:32.588Z,4.20
2019-01-18T01:30:00.222Z,1.92
2019-01-18T01:32:27.939Z,2.25
2019-01-18T01:34:55.612Z,4.03
2019-01-18T01:37:23.251Z,1.95
2019-01-18T01:39:51.055Z,2.15
2019-01-18T01:42:18.779Z,2.42
2019-01-18T01:44:46.450Z,2.83
2019-01-18T01:47:14.141Z,3.20
2019-01-18T01:49:41.795Z,3.08
2019-01-18T01:52:09.455Z,2.15
2019-01-18T01:54:37.557Z,1.72
2019-01-18T01:57:05.243Z,2.65
2019-01-18T01:59:32.868Z,4.60
2019-01-18T02:02:00.555Z,2.15
2019-01-18T02:04:28.278Z,3.35
2019-01-18T02:06:56.069Z,3.37
2019-01-18T02:09:23.717Z,2.58
2019-01-18T02:11:51.336Z,3.58
2019-01-18T02:14:19.028Z,5.20
2019-01-18T02:16:46.656Z,3.20
2019-01-18T02:19:14.400Z,3.80
2019-01-18T02:21:42.035Z,3.05
2019-01-18T02:24:09.721Z,5.55
2019-01-18T02:26:37.386Z,3.17
2019-01-18T02:29:05.056Z,7.40
2019-01-18T02:31:32.707Z,3.77
2019-01-18T02:34:00.386Z,6.47
2019-01-18T02:36:28.031Z,4.47
2019-01-18T02:38:55.685Z,5.87
2019-01-18T02:41:23.332Z,3.85
2019-01-18T02:43:51.025Z,5.03
2019-01-18T02:46:18.673Z,4.17
2019-01-18T02:48:46.349Z,5.25
2019-01-18T02:51:14.007Z,3.15
2019-01-18T02:53:41.675Z,3.35
2019-01-18T02:56:09.394Z,2.85
2019-01-18T02:58:37.048Z,4.40
2019-01-18T03:01:04.665Z,2.75
2019-01-18T03:03:32.427Z,4.25
2019-01-18T03:06:00.112Z,5.62
2019-01-18T03:08:27.708Z,5.35
2019-01-18T03:10:55.392Z,4.65
2019-01-18T03:13:23.047Z,4.03
2019-01-18T03:15:50.697Z,5.70
2019-01-18T03:18:18.331Z,3.45
2019-01-18T03:20:45.989Z,3.90
2019-01-18T03:23:13.627Z,6.35
2019-01-18T03:25:41.299Z,4.28
2019-01-18T03:28:08.917Z,2.75
2019-01-18T03:30:36.608Z,3.77
2019-01-18T03:33:04.249Z,6.92
2019-01-18T03:35:31.893Z,5.85
2019-01-18T03:37:59.571Z,4.20
2019-01-18T03:40:27.244Z,7.60
2019-01-18T03:42:54.913Z,8.05
2019-01-18T03:45:22.563Z,6.15
2019-01-18T03:47:50.456Z,3.60
2019-01-18T03:50:20.096Z,3.98
2019-01-18T03:52:47.788Z,6.08
2019-01-18T03:55:15.483Z,3.70
2019-01-18T03:57:43.228Z,4.12
2019-01-18T04:00:16.208Z,6.67
2019-01-18T04:02:43.851Z,4.85
2019-01-18T04:05:12.015Z,5.17
2019-01-18T04:07:39.710Z,4.25
2019-01-18T04:10:09.192Z,3.27
2019-01-18T04:12:36.860Z,3.08
2019-01-18T04:15:07.214Z,2.95
2019-01-18T04:17:34.875Z,9.68
2019-01-18T04:20:02.947Z,6.85
2019-01-18T04:22:30.620Z,4.95
2019-01-18T04:24:58.248Z,4.90
2019-01-18T04:27:25.914Z,6.75
2019-01-18T04:29:53.569Z,4.00
2019-01-18T04:32:21.324Z,4.12
2019-01-18T04:34:48.958Z,3.92
2019-01-18T04:37:16.647Z,3.80
2019-01-18T04:39:44.287Z,6.80
2019-01-18T04:42:12.105Z,4.55
2019-01-18T04:44:39.775Z,5.72
2019-01-18T04:47:07.422Z,5.80
2019-01-18T04:49:35.068Z,6.40
2019-01-18T04:52:02.836Z,7.28
2019-01-18T04:54:31.560Z,10.90
2019-01-18T04:56:59.245Z,5.85
2019-01-18T04:59:26.962Z,7.80
2019-01-18T05:01:54.735Z,6.62
2019-01-18T05:04:22.529Z,4.05
2019-01-18T05:06:50.184Z,3.92
2019-01-18T05:09:17.893Z,6.30
2019-01-18T05:11:45.682Z,5.45
2019-01-18T05:14:13.304Z,5.85
2019-01-18T05:16:41.172Z,4.20
2019-01-18T05:19:08.855Z,4.95
2019-01-18T05:21:36.507Z,9.13
2019-01-18T05:24:04.186Z,6.53
2019-01-18T05:26:31.864Z,7.72
2019-01-18T05:28:59.506Z,8.68
2019-01-18T05:31:27.147Z,7.03
2019-01-18T05:33:54.841Z,5.20
2019-01-18T05:36:22.487Z,7.15
2019-01-18T05:38:50.208Z,5.85
2019-01-18T05:41:17.844Z,8.33
2019-01-18T05:43:45.531Z,8.18
2019-01-18T05:46:13.188Z,7.33
2019-01-18T05:48:41.020Z,9.50
2019-01-18T05:51:08.631Z,5.15
2019-01-18T05:53:36.371Z,5.17
2019-01-18T05:56:04.151Z,6.50
2019-01-18T05:58:31.823Z,8.28
2019-01-18T06:01:03.431Z,5.75
2019-01-18T06:03:31.128Z,5.87
2019-01-18T06:05:58.827Z,4.80
2019-01-18T06:08:26.487Z,6.87
2019-01-18T06:10:54.158Z,4.50
2019-01-18T06:13:21.834Z,10.88
2019-01-18T06:15:49.480Z,7.42
2019-01-18T06:18:17.270Z,9.23
2019-01-18T06:20:44.866Z,6.47
2019-01-18T06:23:12.527Z,7.45
2019-01-18T06:25:40.182Z,9.88
2019-01-18T06:28:07.975Z,8.85
2019-01-18T06:30:35.613Z,6.85
2019-01-18T06:33:03.470Z,7.12
2019-01-18T06:35:31.249Z,13.15
2019-01-18T06:37:58.900Z,6.72
2019-01-18T06:40:26.526Z,11.33
2019-01-18T06:42:54.219Z,7.28
2019-01-18T06:45:22.239Z,7.47
2019-01-18T06:47:49.906Z,9.50
2019-01-18T06:50:18.448Z,10.45
2019-01-18T06:52:46.159Z,8.63
2019-01-18T06:55:13.805Z,8.85
2019-01-18T06:57:41.517Z,8.25
2019-01-18T07:00:18.351Z,9.25
2019-01-18T07:02:46.141Z,9.60
2019-01-18T07:05:13.812Z,8.83
2019-01-18T07:07:41.471Z,8.50
2019-01-18T07:10:11.386Z,11.38
2019-01-18T07:12:39.013Z,10.60
2019-01-18T07:15:08.806Z,11.28
2019-01-18T07:17:36.586Z,9.90
2019-01-18T07:20:04.575Z,7.87
2019-01-18T07:22:32.228Z,9.73
2019-01-18T07:24:59.903Z,7.83
2019-01-18T07:27:27.535Z,8.23
2019-01-18T07:29:55.196Z,8.65
2019-01-18T07:32:22.833Z,10.85
2019-01-18T07:34:50.647Z,10.63
2019-01-18T07:37:18.272Z,7.33
2019-01-18T07:39:45.914Z,6.85
2019-01-18T07:42:13.552Z,10.90
2019-01-18T07:44:41.232Z,13.62
2019-01-18T07:47:08.843Z,7.12
2019-01-18T07:49:36.495Z,10.28
2019-01-18T07:52:04.287Z,13.32
2019-01-18T07:54:31.952Z,12.33
2019-01-18T07:56:59.607Z,13.38
2019-01-18T07:59:27.415Z,9.05
2019-01-18T08:01:55.076Z,8.40
2019-01-18T08:04:22.731Z,9.60
2019-01-18T08:06:50.430Z,12.35
2019-01-18T08:09:18.106Z,6.80
2019-01-18T08:11:45.789Z,16.32
2019-01-18T08:14:13.474Z,9.85
2019-01-18T08:16:41.115Z,15.15
2019-01-18T08:19:08.812Z,11.53
2019-01-18T08:21:36.461Z,7.90
2019-01-18T08:24:04.210Z,7.45
2019-01-18T08:26:31.843Z,11.88
2019-01-18T08:28:59.493Z,9.03
2019-01-18T08:31:29.006Z,10.28
2019-01-18T08:33:56.628Z,11.53
2019-01-18T08:36:24.419Z,9.88
2019-01-18T08:38:52.051Z,8.75
2019-01-18T08:41:19.721Z,8.68
2019-01-18T08:43:47.381Z,9.03
2019-01-18T08:46:16.021Z,9.63
2019-01-18T08:48:43.675Z,10.85
2019-01-18T08:51:11.351Z,11.03
2019-01-18T08:53:39.042Z,9.93
2019-01-18T08:56:07.592Z,12.58
2019-01-18T08:58:35.290Z,11.53
2019-01-18T09:01:03.034Z,11.12
2019-01-18T09:03:30.739Z,10.85
2019-01-18T09:05:58.443Z,10.93
2019-01-18T09:08:26.116Z,7.92
2019-01-18T09:10:53.766Z,12.35
2019-01-18T09:13:21.471Z,12.43
2019-01-18T09:15:49.185Z,10.68
2019-01-18T09:18:16.804Z,12.63
2019-01-18T09:20:44.436Z,15.68
2019-01-18T09:23:12.216Z,12.63
2019-01-18T09:25:39.847Z,10.63
2019-01-18T09:28:07.581Z,10.55
2019-01-18T09:30:35.359Z,12.25
2019-01-18T09:33:05.199Z,12.53
2019-01-18T09:35:33.270Z,10.53
2019-01-18T09:38:00.920Z,10.10
2019-01-18T09:40:30.348Z,11.93
2019-01-18T09:42:58.208Z,7.72
2019-01-18T09:45:25.900Z,10.50
2019-01-18T09:47:53.594Z,9.80
2019-01-18T09:50:23.551Z,9.50
2019-01-18T09:52:51.241Z,11.05
2019-01-18T09:55:18.952Z,8.93
2019-01-18T09:57:46.763Z,12.93
2019-01-18T10:00:19.468Z,9.97
2019-01-18T10:02:47.139Z,12.43
2019-01-18T10:05:14.912Z,15.90
2019-01-18T10:07:42.574Z,13.47
2019-01-18T10:10:13.031Z,13.63
2019-01-18T10:12:41.040Z,12.90
2019-01-18T10:15:11.448Z,10.33
2019-01-18T10:17:39.074Z,12.43
2019-01-18T10:20:09.188Z,12.17
2019-01-18T10:22:36.871Z,12.13
2019-01-18T10:25:05.247Z,12.03
2019-01-18T10:27:32.954Z,13.57
2019-01-18T10:30:00.603Z,9.63
2019-01-18T10:32:28.588Z,9.63
2019-01-18T10:34:56.265Z,11.27
2019-01-18T10:37:23.903Z,10.90
2019-01-18T10:39:51.543Z,8.30
2019-01-18T10:42:19.164Z,10.33
2019-01-18T10:44:46.840Z,7.83
2019-01-18T10:47:14.535Z,8.70
2019-01-18T10:49:42.195Z,10.30
2019-01-18T10:52:09.817Z,11.90
2019-01-18T10:54:37.542Z,7.87
2019-01-18T10:57:05.216Z,8.07
2019-01-18T10:59:32.852Z,7.53
2019-01-18T11:02:06.927Z,7.10
2019-01-18T11:04:30.017Z,10.67
2019-01-18T11:06:57.810Z,5.90
2019-01-18T11:09:25.436Z,6.63
2019-01-18T11:11:53.079Z,7.53
2019-01-18T11:14:20.716Z,7.57
2019-01-18T11:16:48.372Z,10.10
2019-01-18T11:19:16.027Z,7.13
2019-01-18T11:21:43.952Z,6.60
2019-01-18T11:24:11.563Z,6.57
2019-01-18T11:26:39.265Z,9.07
2019-01-18T11:29:06.955Z,7.80
2019-01-18T11:31:34.630Z,5.37
2019-01-18T11:34:02.522Z,7.37
2019-01-18T11:36:30.160Z,7.20
2019-01-18T11:38:57.784Z,7.03
2019-01-18T11:41:25.503Z,10.33
2019-01-18T11:43:53.246Z,5.70
2019-01-18T11:46:20.908Z,9.93
2019-01-18T11:48:50.354Z,6.13
2019-01-18T11:51:18.023Z,6.40
2019-01-18T11:53:45.651Z,4.57
2019-01-18T11:56:13.475Z,6.40
2019-01-18T11:58:41.124Z,3.10
2019-01-18T12:01:08.763Z,4.60
2019-01-18T12:03:36.424Z,4.10
2019-01-18T12:06:04.203Z,5.87
2019-01-18T12:08:31.885Z,4.60
2019-01-18T12:10:59.625Z,4.90
2019-01-18T12:13:27.260Z,6.20
2019-01-18T12:15:54.952Z,4.80
2019-01-18T12:18:22.615Z,6.30
2019-01-18T12:20:50.456Z,4.13
2019-01-18T12:23:18.128Z,3.50
2019-01-18T12:25:45.759Z,4.67
2019-01-18T12:28:13.457Z,4.03
2019-01-18T12:30:41.109Z,7.20
2019-01-18T12:33:08.770Z,5.10
2019-01-18T12:35:36.479Z,5.80
2019-01-18T12:38:04.318Z,5.93
2019-01-18T12:40:32.216Z,6.67
2019-01-18T12:42:59.943Z,5.43
2019-01-18T12:45:27.580Z,7.27
2019-01-18T12:47:55.247Z,5.40
2019-01-18T12:50:25.575Z,5.03
2019-01-18T12:52:53.328Z,3.67
2019-01-18T12:55:21.017Z,5.57
2019-01-18T12:57:48.803Z,4.80
2019-01-18T13:00:18.555Z,4.93
2019-01-18T13:02:46.259Z,2.67
2019-01-18T13:05:16.884Z,6.20
2019-01-18T13:07:45.035Z,3.10
2019-01-18T13:10:12.790Z,4.80
2019-01-18T13:12:40.429Z,4.07
2019-01-18T13:15:12.477Z,3.47
2019-01-18T13:17:40.124Z,4.13
2019-01-18T13:20:08.918Z,6.47
2019-01-18T13:22:36.544Z,3.83
2019-01-18T13:25:07.114Z,3.23
2019-01-18T13:27:34.752Z,5.83
2019-01-18T13:30:02.672Z,5.27
2019-01-18T13:32:30.334Z,3.03
2019-01-18T13:34:57.982Z,5.77
2019-01-18T13:37:25.656Z,9.47
2019-01-18T13:39:53.335Z,7.10
2019-01-18T13:42:20.967Z,8.53
2019-01-18T13:44:48.652Z,6.03
2019-01-18T13:47:18.364Z,5.23
2019-01-18T13:49:45.743Z,4.30
2019-01-18T13:52:13.419Z,4.87
2019-01-18T13:54:41.051Z,3.43
2019-01-18T13:57:12.274Z,3.67
2019-01-18T13:59:38.352Z,4.60
2019-01-18T14:02:06.102Z,4.73
2019-01-18T14:04:33.823Z,4.80
2019-01-18T14:07:01.481Z,4.63
2019-01-18T14:09:29.263Z,5.47
2019-01-18T14:11:56.976Z,5.43
2019-01-18T14:14:24.651Z,4.80
2019-01-18T14:16:52.329Z,5.40
2019-01-18T14:19:20.038Z,4.67
2019-01-18T14:21:47.701Z,4.63
2019-01-18T14:24:15.403Z,3.27
2019-01-18T14:26:43.046Z,3.60
2019-01-18T14:29:10.724Z,4.90
2019-01-18T14:31:38.431Z,5.87
2019-01-18T14:34:06.086Z,3.47
2019-01-18T14:36:33.759Z,6.47
2019-01-18T14:39:01.508Z,6.60
2019-01-18T14:41:31.033Z,6.53
2019-01-18T14:43:58.632Z,6.27
2019-01-18T14:46:26.317Z,5.43
2019-01-18T14:48:53.941Z,4.43
2019-01-18T14:51:21.611Z,4.47
2019-01-18T14:53:49.269Z,5.13
2019-01-18T14:56:16.970Z,3.23
2019-01-18T14:58:44.607Z,6.03
2019-01-18T15:01:12.485Z,3.70
2019-01-18T15:03:40.143Z,4.30
2019-01-18T15:06:07.910Z,6.50
2019-01-18T15:08:35.575Z,3.70
2019-01-18T15:11:03.536Z,4.10
2019-01-18T15:13:31.320Z,3.20
2019-01-18T15:15:58.959Z,4.60
2019-01-18T15:18:26.627Z,6.20
2019-01-18T15:20:54.284Z,7.00
2019-01-18T15:23:21.932Z,5.30
2019-01-18T15:25:49.636Z,2.57
2019-01-18T15:28:17.287Z,5.57
2019-01-18T15:30:44.960Z,7.00
2019-01-18T15:33:12.663Z,6.93
2019-01-18T15:35:40.328Z,3.33
2019-01-18T15:38:09.612Z,3.20
2019-01-18T15:40:40.672Z,5.40
2019-01-18T15:43:08.533Z,4.50
2019-01-18T15:45:36.192Z,6.80
2019-01-18T15:48:03.950Z,5.23
2019-01-18T15:50:33.773Z,10.20
2019-01-18T15:53:01.426Z,6.77
2019-01-18T15:55:29.076Z,8.03
2019-01-18T15:57:56.746Z,6.50
2019-01-18T16:00:29.308Z,7.30
2019-01-18T16:02:57.098Z,9.80
2019-01-18T16:05:24.838Z,8.40
2019-01-18T16:07:52.616Z,5.23
2019-01-18T16:10:20.300Z,7.30
2019-01-18T16:12:47.937Z,5.30
2019-01-18T16:15:16.112Z,6.00
2019-01-18T16:17:44.623Z,10.10
2019-01-18T16:20:14.448Z,6.30
2019-01-18T16:22:42.243Z,4.20
2019-01-18T16:25:26.750Z,7.43
2019-01-18T16:27:54.430Z,6.57
2019-01-18T16:30:22.185Z,8.47
2019-01-18T16:32:49.976Z,5.93
2019-01-18T16:35:18.276Z,4.30
2019-01-18T16:37:46.586Z,4.63
2019-01-18T16:40:16.919Z,7.23
2019-01-18T16:42:46.552Z,6.70
2019-01-18T16:45:14.564Z,6.50
2019-01-18T16:47:42.244Z,7.93
2019-01-18T16:50:10.863Z,7.23
2019-01-18T16:52:38.520Z,9.23
2019-01-18T16:55:07.602Z,7.93
2019-01-18T16:57:35.219Z,7.57
2019-01-18T17:00:04.256Z,8.53
2019-01-18T17:02:31.935Z,6.67
2019-01-18T17:04:59.609Z,9.20
2019-01-18T17:07:27.313Z,5.93
2019-01-18T17:09:55.024Z,6.07
2019-01-18T17:12:22.627Z,12.70
2019-01-18T17:14:50.302Z,10.57
2019-01-18T17:17:17.978Z,11.13
2019-01-18T17:19:45.592Z,6.47
2019-01-18T17:22:13.307Z,7.33
2019-01-18T17:24:41.062Z,7.47
2019-01-18T17:27:08.709Z,8.20
2019-01-18T17:29:36.356Z,5.30
2019-01-18T17:32:04.007Z,7.60
2019-01-18T17:34:31.663Z,10.53
2019-01-18T17:37:04.299Z,6.87
2019-01-18T17:39:54.192Z,9.10
2019-01-18T17:43:15.333Z,9.77
2019-01-18T17:46:31.947Z,9.93
2019-01-18T17:49:45.675Z,8.07
2019-01-18T17:52:45.080Z,8.53
2019-01-18T17:55:42.201Z,7.47
2019-01-18T17:58:28.776Z,8.47
2019-01-18T18:01:50.037Z,10.07
2019-01-18T18:04:36.109Z,8.17
2019-01-18T18:07:23.808Z,15.30
2019-01-18T18:10:15.573Z,7.73
2019-01-18T18:13:22.773Z,7.27
2019-01-18T18:16:34.122Z,9.63
2019-01-18T18:20:06.391Z,5.97
2019-01-18T18:22:56.143Z,5.43
2019-01-18T18:25:48.568Z,7.33
2019-01-18T18:29:04.112Z,7.83
2019-01-18T18:32:13.698Z,10.63
2019-01-18T18:35:23.419Z,11.57
2019-01-18T18:38:30.093Z,10.53
2019-01-18T18:41:33.626Z,9.33
2019-01-18T18:44:38.606Z,8.20
2019-01-18T18:47:41.779Z,10.10
2019-01-18T18:50:48.008Z,5.77
2019-01-18T18:53:46.471Z,11.07
2019-01-18T18:57:03.666Z,9.50
2019-01-18T18:59:46.162Z,9.53
2019-01-18T19:02:27.486Z,10.70
2019-01-18T19:05:37.648Z,13.73
2019-01-18T19:08:38.435Z,10.13
2019-01-18T19:11:34.287Z,12.70
2019-01-18T19:14:20.823Z,8.97
2019-01-18T19:17:14.409Z,10.70
2019-01-18T19:20:22.453Z,14.47
2019-01-18T19:23:49.801Z,9.80
2019-01-18T19:27:29.040Z,10.40
2019-01-18T19:30:41.353Z,10.30
2019-01-18T19:33:34.492Z,12.70
2019-01-18T19:36:37.024Z,11.47
2019-01-18T19:39:29.331Z,11.70
2019-01-18T19:42:41.885Z,12.10
2019-01-18T19:45:35.198Z,11.47
2019-01-18T19:48:32.868Z,16.10
2019-01-18T19:51:53.892Z,14.03
2019-01-18T19:55:11.979Z,11.03
2019-01-18T19:58:45.532Z,14.93
2019-01-18T20:01:56.181Z,10.80
2019-01-18T20:05:02.865Z,10.40
2019-01-18T20:08:01.819Z,10.97
2019-01-18T20:11:18.935Z,13.43
2019-01-18T20:14:26.740Z,13.13
2019-01-18T20:17:22.190Z,17.85
2019-01-18T20:20:34.943Z,13.07
2019-01-18T20:23:30.309Z,18.87
2019-01-18T20:26:29.926Z,17.93
2019-01-18T20:29:29.550Z,14.90
2019-01-18T20:32:40.771Z,13.83
2019-01-18T20:35:55.333Z,18.50
2019-01-18T20:39:10.445Z,16.27
2019-01-18T20:42:35.940Z,13.53
2019-01-18T20:45:43.094Z,18.07
2019-01-18T20:49:04.373Z,16.40
2019-01-18T20:52:12.207Z,17.90
2019-01-18T20:55:18.215Z,17.33
2019-01-18T20:58:22.586Z,18.30
2019-01-18T21:01:35.512Z,13.88
2019-01-18T21:04:50.861Z,20.88
2019-01-18T21:08:04.431Z,15.37
2019-01-18T21:11:00.748Z,17.10
2019-01-18T21:13:59.777Z,15.75
2019-01-18T21:17:12.335Z,14.55
2019-01-18T21:20:31.490Z,16.97
2019-01-18T21:23:21.628Z,18.73
2019-01-18T21:26:24.565Z,16.87
2019-01-18T21:29:22.630Z,17.87
2019-01-18T21:32:21.537Z,17.60
2019-01-18T21:35:10.071Z,16.60
2019-01-18T21:38:28.421Z,18.30
2019-01-18T21:41:17.709Z,15.83
2019-01-18T21:44:27.074Z,15.90
2019-01-18T21:47:06.776Z,14.78
2019-01-18T21:50:01.296Z,16.75
2019-01-18T21:53:09.638Z,12.03
2019-01-18T21:55:43.905Z,19.02
2019-01-18T21:58:39.370Z,15.20
2019-01-18T22:02:01.156Z,17.90
2019-01-18T22:04:42.544Z,17.45
2019-01-18T22:07:53.951Z,13.80
2019-01-18T22:10:39.878Z,17.65
2019-01-18T22:13:38.792Z,23.67
2019-01-18T22:16:46.783Z,21.20
2019-01-18T22:19:51.746Z,15.98
2019-01-18T22:23:13.166Z,17.37
2019-01-18T22:26:29.037Z,14.33
2019-01-18T22:29:27.959Z,15.68
2019-01-18T22:32:21.459Z,14.85
2019-01-18T22:35:25.407Z,17.52
2019-01-18T22:38:25.234Z,14.53
2019-01-18T22:41:31.153Z,14.38
2019-01-18T22:44:50.477Z,18.00
2019-01-18T22:47:52.442Z,14.23
2019-01-18T22:50:59.636Z,14.20
2019-01-18T22:53:57.156Z,17.35
2019-01-18T22:57:06.802Z,22.60
2019-01-18T23:00:33.118Z,13.75
2019-01-18T23:03:24.372Z,16.45
2019-01-18T23:06:32.634Z,15.23
2019-01-18T23:09:45.087Z,13.45
2019-01-18T23:12:40.667Z,13.75
2019-01-18T23:15:44.881Z,15.18
2019-01-18T23:18:52.119Z,12.73
2019-01-18T23:22:04.739Z,11.60
2019-01-18T23:24:53.356Z,12.85
2019-01-18T23:28:10.378Z,14.87
2019-01-18T23:30:57.008Z,16.32
2019-01-18T23:34:09.441Z,16.48
2019-01-18T23:37:09.066Z,15.25
2019-01-18T23:39:57.626Z,13.98
2019-01-18T23:43:21.543Z,11.70
2019-01-18T23:46:25.303Z,19.73
2019-01-18T23:49:16.003Z,29.52
2019-01-18T23:52:36.992Z,31.10
2019-01-18T23:55:51.489Z,19.37
2019-01-18T23:58:49.188Z,17.73
